Time;durP1;ratioP1;P1;durP2;ratioP2;P2;SDS_P1;SDS_P2;PMS_P1;PMS_P2;Temp;Humidity;BMP_temperature;BMP_pressure;BME280_temperature;BME280_humidity;BME280_pressure;Samples;Min_cycle;Max_cycle;Signal;HPM_P1;HPM_P2
2024/01/10 06:44:20;;;;;;;7.10;4.00;;;;;;;;;;10490868;28;20807;-84
2024/01/10 06:49:21;;;;;;;7.32;4.57;;;;;;;;;;10482280;28;20033;-85
2024/01/10 06:54:22;;;;;;;8.68;4.78;;;;;;;;;;10464037;28;20031;-84
2024/01/10 06:59:23;;;;;;;8.10;5.03;;;;;;;;;;10462988;28;20037;-84
2024/01/10 07:04:24;;;;;;;7.25;4.90;;;;;;;;;;10464485;28;20022;-84
2024/01/10 07:09:25;;;;;;;7.75;5.10;;;;;;;;;;10464224;28;20044;-85
2024/01/10 07:14:26;;;;;;;6.80;4.47;;;;;;;;;;10462448;28;20128;-85
2024/01/10 07:19:27;;;;;;;8.00;5.57;;;;;;;;;;10462437;28;20151;-85
2024/01/10 07:24:30;;;;;;;6.35;4.40;;;;;;;;;;10464777;28;20155;-85
2024/01/10 07:29:31;;;;;;;17.90;9.70;;;;;;;;;;10472498;28;20025;-83
2024/01/10 07:34:32;;;;;;;7.68;5.50;;;;;;;;;;10484507;28;20032;-80
2024/01/10 07:39:34;;;;;;;8.27;5.57;;;;;;;;;;10455491;28;20473;-81
2024/01/10 07:44:35;;;;;;;7.07;5.15;;;;;;;;;;10455330;28;20032;-81
2024/01/10 07:49:37;;;;;;;10.25;6.32;;;;;;;;;;10469177;28;20445;-80
2024/01/10 07:54:38;;;;;;;8.38;5.97;;;;;;;;;;10437883;28;20040;-82
2024/01/10 07:59:39;;;;;;;8.80;5.80;;;;;;;;;;10428789;28;20033;-81
2024/01/10 08:04:40;;;;;;;7.50;5.07;;;;;;;;;;10428514;28;20053;-79
2024/01/10 08:09:42;;;;;;;;;;;;;;;;;;10435487;28;20026;-80
2024/01/10 08:14:45;;;;;;;12.77;8.43;;;;;;;;;;10430661;28;19964;-81
2024/01/10 08:19:46;;;;;;;12.27;8.20;;;;;;;;;;10434498;28;20079;-82
2024/01/10 08:24:47;;;;;;;10.40;7.55;;;;;;;;;;10431661;28;20049;-81
2024/01/10 08:29:48;;;;;;;11.65;8.10;;;;;;;;;;10430688;28;20030;-81
2024/01/10 08:34:50;;;;;;;10.52;7.50;;;;;;;;;;10427675;28;20025;-79
2024/01/10 08:39:51;;;;;;;10.63;7.00;;;;;;;;;;10431262;28;20064;-80
2024/01/10 08:44:52;;;;;;;11.20;7.55;;;;;;;;;;10427894;28;20103;-80
2024/01/10 08:49:53;;;;;;;10.05;6.78;;;;;;;;;;10427020;28;20049;-79
2024/01/10 08:54:54;;;;;;;16.38;8.98;;;;;;;;;;10428190;28;20048;-80
2024/01/10 08:59:55;;;;;;;11.63;7.90;;;;;;;;;;10426167;28;20440;-80
2024/01/10 09:04:56;;;;;;;11.63;7.55;;;;;;;;;;10429572;28;20033;-79
2024/01/10 09:09:57;;;;;;;11.65;7.93;;;;;;;;;;10428003;28;20029;-80
2024/01/10 09:14:58;;;;;;;12.75;8.52;;;;;;;;;;10427830;28;20499;-80
2024/01/10 09:20:02;;;;;;;12.00;8.00;;;;;;;;;;10429747;28;20068;-80
2024/01/10 09:25:05;;;;;;;15.02;9.57;;;;;;;;;;10429130;28;20033;-80
2024/01/10 09:30:09;;;;;;;13.30;9.00;;;;;;;;;;10428241;28;20112;-81
2024/01/10 09:35:10;;;;;;;9.90;6.57;;;;;;;;;;10426419;28;20496;-79
2024/01/10 09:40:14;;;;;;;10.43;6.43;;;;;;;;;;10425500;28;20111;-80
2024/01/10 09:45:17;;;;;;;11.95;7.60;;;;;;;;;;10426722;28;20036;-80
2024/01/10 09:50:18;;;;;;;11.77;7.68;;;;;;;;;;10424328;28;20025;-80
2024/01/10 09:55:23;;;;;;;10.48;7.53;;;;;;;;;;10425025;28;20025;-79
2024/01/10 10:00:25;;;;;;;10.20;6.68;;;;;;;;;;10423406;28;20040;-79
2024/01/10 10:05:26;;;;;;;11.15;7.50;;;;;;;;;;10424583;28;20109;-80
2024/01/10 10:10:27;;;;;;;13.60;9.48;;;;;;;;;;10422870;28;20034;-78
2024/01/10 10:15:29;;;;;;;;;;;;;;;;;;10421294;28;20056;-78
2024/01/10 10:20:36;;;;;;;11.40;7.18;;;;;;;;;;10424153;28;19981;-78
2024/01/10 10:25:38;;;;;;;18.23;12.05;;;;;;;;;;10421453;28;20060;-78
2024/01/10 10:30:39;;;;;;;11.60;7.93;;;;;;;;;;10431806;28;20049;-77
2024/01/10 10:35:40;;;;;;;11.45;7.75;;;;;;;;;;10447073;28;20121;-80
2024/01/10 10:40:41;;;;;;;20.05;13.65;;;;;;;;;;10425170;28;20072;-80
2024/01/10 10:45:48;;;;;;;17.10;11.30;;;;;;;;;;10443359;28;20034;-79
2024/01/10 10:51:08;;;;;;;11.98;8.18;;;;;;;;;;10462817;28;20029;-80
2024/01/10 10:56:09;;;;;;;16.63;10.33;;;;;;;;;;10455304;28;20022;-79
2024/01/10 11:01:12;;;;;;;12.75;8.38;;;;;;;;;;10451216;28;20013;-80
2024/01/10 11:06:13;;;;;;;12.57;7.43;;;;;;;;;;10452478;28;20014;-79
2024/01/10 11:11:34;;;;;;;15.68;9.63;;;;;;;;;;10453717;28;20021;-80
2024/01/10 11:16:49;;;;;;;14.18;8.93;;;;;;;;;;10429244;28;20084;-79
2024/01/10 11:21:57;;;;;;;15.20;9.35;;;;;;;;;;10426690;28;20036;-80
2024/01/10 11:27:14;;;;;;;12.35;7.88;;;;;;;;;;10431939;28;20057;-83
2024/01/10 11:32:16;;;;;;;12.25;7.55;;;;;;;;;;10438058;28;20033;-79
2024/01/10 11:37:17;;;;;;;15.15;9.18;;;;;;;;;;10439780;28;20125;-79
2024/01/10 11:42:18;;;;;;;;;;;;;;;;;;10444979;28;20037;-78
2024/01/10 11:47:20;;;;;;;14.80;9.50;;;;;;;;;;10442302;28;19905;-79
2024/01/10 11:52:23;;;;;;;12.88;9.20;;;;;;;;;;10442766;28;20078;-79
2024/01/10 11:57:26;;;;;;;16.15;9.75;;;;;;;;;;10436724;28;20028;-79
2024/01/10 12:02:28;;;;;;;15.25;9.05;;;;;;;;;;10435523;28;20036;-80
2024/01/10 12:07:29;;;;;;;18.42;11.10;;;;;;;;;;10439881;28;20025;-81
2024/01/10 12:12:30;;;;;;;12.48;8.32;;;;;;;;;;10438050;28;20072;-80
2024/01/10 12:17:31;;;;;;;13.18;8.55;;;;;;;;;;10437740;28;20492;-81
2024/01/10 12:22:32;;;;;;;18.52;12.15;;;;;;;;;;10436683;28;20069;-79
2024/01/10 12:27:33;;;;;;;14.38;8.95;;;;;;;;;;10431151;28;20389;-79
2024/01/10 12:32:34;;;;;;;13.30;8.02;;;;;;;;;;10428364;28;20129;-78
2024/01/10 12:37:35;;;;;;;14.80;9.93;;;;;;;;;;10427123;28;20116;-79
2024/01/10 12:42:36;;;;;;;11.95;7.80;;;;;;;;;;10427352;28;20049;-79
2024/01/10 12:47:37;;;;;;;12.75;8.48;;;;;;;;;;10428772;28;20115;-80
2024/01/10 12:52:39;;;;;;;20.92;11.60;;;;;;;;;;10430444;28;20126;-80
2024/01/10 12:57:41;;;;;;;17.52;11.43;;;;;;;;;;10460024;28;20055;-81
2024/01/10 13:02:42;;;;;;;13.02;7.68;;;;;;;;;;10442242;28;20030;-82
2024/01/10 13:07:43;;;;;;;14.82;8.48;;;;;;;;;;10432544;28;20104;-82
2024/01/10 13:12:45;;;;;;;10.38;6.75;;;;;;;;;;10430303;28;20029;-82
2024/01/10 13:17:46;;;;;;;14.20;9.10;;;;;;;;;;10431723;28;20028;-82
2024/01/10 13:22:47;;;;;;;12.65;8.63;;;;;;;;;;10431431;28;20085;-82
2024/01/10 13:27:48;;;;;;;17.65;12.13;;;;;;;;;;10438923;28;20068;-82
2024/01/10 13:32:49;;;;;;;11.32;7.68;;;;;;;;;;10461324;28;20124;-79
2024/01/10 13:37:50;;;;;;;14.13;8.68;;;;;;;;;;10443378;28;20036;-81
2024/01/10 13:42:52;;;;;;;14.48;8.50;;;;;;;;;;10430077;28;20037;-81
2024/01/10 13:47:53;;;;;;;;;;;;;;;;;;10431100;28;20021;-81
2024/01/10 13:52:54;;;;;;;14.40;9.43;;;;;;;;;;10427669;28;19913;-83
2024/01/10 13:57:56;;;;;;;12.88;7.47;;;;;;;;;;10432305;28;20454;-83
2024/01/10 14:03:00;;;;;;;11.18;7.68;;;;;;;;;;10429900;28;20038;-84
2024/01/10 14:08:01;;;;;;;13.55;8.80;;;;;;;;;;10434466;28;20026;-82
2024/01/10 14:13:03;;;;;;;13.68;7.95;;;;;;;;;;10426422;28;20029;-82
2024/01/10 14:18:05;;;;;;;11.68;6.97;;;;;;;;;;10426623;28;20026;-82
2024/01/10 14:23:06;;;;;;;10.95;7.63;;;;;;;;;;10427603;28;20094;-83
2024/01/10 14:28:07;;;;;;;16.05;10.23;;;;;;;;;;10430458;28;20061;-83
2024/01/10 14:33:08;;;;;;;15.25;9.10;;;;;;;;;;10426010;28;20070;-82
2024/01/10 14:38:10;;;;;;;16.10;9.45;;;;;;;;;;10425695;28;20509;-82
2024/01/10 14:43:11;;;;;;;12.90;7.63;;;;;;;;;;10423765;28;20052;-82
2024/01/10 14:48:12;;;;;;;10.30;7.10;;;;;;;;;;10424001;28;20199;-84
2024/01/10 14:53:13;;;;;;;13.35;8.93;;;;;;;;;;10425177;28;20120;-83
2024/01/10 14:58:14;;;;;;;13.90;8.95;;;;;;;;;;10425659;28;20123;-83
2024/01/10 15:03:15;;;;;;;12.13;8.20;;;;;;;;;;10429651;28;20033;-84
2024/01/10 15:08:17;;;;;;;12.43;8.25;;;;;;;;;;10433538;28;20030;-84
2024/01/10 15:13:19;;;;;;;11.68;7.95;;;;;;;;;;10433550;28;20039;-84
2024/01/10 15:18:20;;;;;;;13.43;8.25;;;;;;;;;;10433191;28;20017;-84
2024/01/10 15:23:21;;;;;;;12.18;8.25;;;;;;;;;;10434386;28;20037;-83
2024/01/10 15:28:22;;;;;;;12.27;8.18;;;;;;;;;;10432354;28;20101;-83
2024/01/10 15:33:23;;;;;;;12.27;7.80;;;;;;;;;;10433956;28;20037;-83
2024/01/10 15:38:24;;;;;;;16.63;11.82;;;;;;;;;;10435207;28;20072;-82
2024/01/10 15:43:26;;;;;;;12.52;7.90;;;;;;;;;;10435311;28;20086;-84
2024/01/10 15:48:30;;;;;;;11.50;7.47;;;;;;;;;;10432361;28;20049;-84
2024/01/10 15:53:31;;;;;;;11.80;7.32;;;;;;;;;;10432815;28;20036;-83
2024/01/10 15:58:32;;;;;;;13.52;8.55;;;;;;;;;;10429015;28;20338;-85
2024/01/10 16:03:34;;;;;;;14.25;9.77;;;;;;;;;;10428087;28;20029;-82
2024/01/10 16:08:35;;;;;;;11.75;7.80;;;;;;;;;;10432659;28;20061;-82
2024/01/10 16:13:36;;;;;;;12.23;8.15;;;;;;;;;;10451947;28;20041;-82
2024/01/10 16:18:38;;;;;;;11.48;8.00;;;;;;;;;;10444433;28;20041;-81
2024/01/10 16:23:39;;;;;;;12.63;8.00;;;;;;;;;;10430261;28;20088;-83
2024/01/10 16:28:40;;;;;;;13.90;10.07;;;;;;;;;;10441815;28;20017;-82
2024/01/10 16:33:41;;;;;;;12.18;8.27;;;;;;;;;;10456297;28;20037;-83
2024/01/10 16:38:42;;;;;;;11.77;7.47;;;;;;;;;;10430879;28;20025;-82
2024/01/10 16:43:43;;;;;;;15.02;9.50;;;;;;;;;;10429504;28;20101;-83
2024/01/10 16:48:44;;;;;;;14.40;8.38;;;;;;;;;;10430741;28;20100;-83
2024/01/10 16:53:45;;;;;;;11.10;6.75;;;;;;;;;;10429630;28;20120;-82
2024/01/10 16:58:46;;;;;;;12.45;8.38;;;;;;;;;;10428761;28;20032;-82
2024/01/10 17:03:48;;;;;;;14.68;9.60;;;;;;;;;;10428672;28;20097;-82
2024/01/10 17:08:49;;;;;;;12.25;8.52;;;;;;;;;;10428996;28;20412;-82
2024/01/10 17:13:50;;;;;;;12.13;9.55;;;;;;;;;;10427165;28;20394;-83
2024/01/10 17:18:51;;;;;;;11.93;7.60;;;;;;;;;;10429681;28;20064;-84
2024/01/10 17:23:52;;;;;;;15.55;10.75;;;;;;;;;;10431650;28;20025;-82
2024/01/10 17:28:53;;;;;;;17.77;11.23;;;;;;;;;;10430834;28;20111;-84
2024/01/10 17:33:54;;;;;;;;;;;;;;;;;;10431727;28;20033;-85
2024/01/10 17:38:55;;;;;;;15.67;10.10;;;;;;;;;;10430666;28;19905;-85
2024/01/10 17:43:57;;;;;;;16.33;11.60;;;;;;;;;;10431900;28;20772;-85
2024/01/10 17:48:58;;;;;;;14.15;10.52;;;;;;;;;;10434279;28;20036;-86
2024/01/10 17:53:59;;;;;;;14.90;10.77;;;;;;;;;;10431423;28;20124;-86
2024/01/10 17:59:01;;;;;;;15.75;11.32;;;;;;;;;;10429878;28;20032;-85
2024/01/10 18:04:02;;;;;;;14.25;10.25;;;;;;;;;;10431009;28;20112;-86
2024/01/10 18:09:03;;;;;;;16.75;11.68;;;;;;;;;;10427401;28;20175;-85
2024/01/10 18:14:04;;;;;;;13.63;9.68;;;;;;;;;;10430170;28;20065;-86
2024/01/10 18:19:05;;;;;;;15.60;10.98;;;;;;;;;;10461478;28;20005;-84
2024/01/10 18:24:06;;;;;;;13.60;10.10;;;;;;;;;;10443234;28;20033;-85
2024/01/10 18:29:08;;;;;;;16.80;11.32;;;;;;;;;;10435238;28;20449;-84
2024/01/10 18:34:09;;;;;;;14.85;10.38;;;;;;;;;;10432865;28;20030;-85
2024/01/10 18:39:12;;;;;;;14.38;10.32;;;;;;;;;;10434501;28;20024;-84
2024/01/10 18:44:14;;;;;;;17.33;12.48;;;;;;;;;;10431687;28;20073;-85
2024/01/10 18:49:15;;;;;;;16.00;11.70;;;;;;;;;;10432041;28;20010;-85
2024/01/10 18:54:41;;;;;;;18.00;11.80;;;;;;;;;;10442194;22;20105;-84
2024/01/10 18:59:46;;;;;;;15.82;10.77;;;;;;;;;;10411067;28;20037;-85
2024/01/10 19:05:05;;;;;;;15.00;9.70;;;;;;;;;;10414957;28;20045;-86
2024/01/10 19:10:31;;;;;;;13.68;10.63;;;;;;;;;;10412388;28;20037;-85
2024/01/10 19:15:33;;;;;;;14.98;10.57;;;;;;;;;;10417516;28;20056;-86
2024/01/10 19:20:38;;;;;;;15.80;9.68;;;;;;;;;;10420370;28;20030;-85
2024/01/10 19:25:39;;;;;;;15.65;10.50;;;;;;;;;;10421089;28;20049;-86
2024/01/10 19:30:40;;;;;;;14.57;10.55;;;;;;;;;;10422447;28;20029;-85
2024/01/10 19:35:41;;;;;;;14.20;10.25;;;;;;;;;;10425569;28;20052;-85
2024/01/10 19:40:42;;;;;;;15.70;11.02;;;;;;;;;;10416396;28;20093;-84
2024/01/10 19:45:43;;;;;;;17.70;12.30;;;;;;;;;;10412889;28;20037;-84
2024/01/10 19:50:44;;;;;;;18.55;13.13;;;;;;;;;;10415955;28;20079;-85
2024/01/10 19:55:45;;;;;;;13.40;10.00;;;;;;;;;;10415658;28;20114;-84
2024/01/10 20:00:47;;;;;;;14.68;11.25;;;;;;;;;;10423213;28;20495;-84
2024/01/10 20:05:48;;;;;;;;;;;;;;;;;;10417845;28;20120;-84
